createdAt,value
2019-04-06T00:00:47.284Z,63.63
2019-04-06T00:03:15.438Z,66.80
2019-04-06T00:05:43.654Z,66.17
2019-04-06T00:08:11.714Z,69.87
2019-04-06T00:10:39.835Z,67.00
2019-04-06T00:13:08.827Z,66.77
2019-04-06T00:15:36.934Z,68.57
2019-04-06T00:18:04.983Z,66.90
2019-04-06T00:20:33.039Z,70.53
2019-04-06T00:23:01.095Z,67.53
2019-04-06T00:25:29.208Z,74.57
2019-04-06T00:27:57.420Z,67.77
2019-04-06T00:30:25.528Z,70.37
2019-04-06T00:33:18.598Z,76.63
2019-04-06T00:35:46.725Z,68.40
2019-04-06T00:38:14.823Z,68.43
2019-04-06T00:40:42.907Z,72.83
2019-04-06T00:43:11.009Z,73.07
2019-04-06T00:45:53.958Z,69.30
2019-04-06T00:48:22.767Z,74.40
2019-04-06T00:50:50.864Z,71.60
2019-04-06T00:53:18.924Z,71.13
2019-04-06T00:58:56.746Z,69.17
2019-04-06T01:01:24.838Z,68.20
2019-04-06T01:03:52.942Z,70.20
2019-04-06T01:06:21.094Z,69.87
2019-04-06T01:08:51.918Z,66.80
2019-04-06T01:11:20.049Z,66.97
2019-04-06T01:13:48.150Z,68.67
2019-04-06T01:16:16.253Z,72.27
2019-04-06T01:18:44.342Z,66.40
2019-04-06T01:21:12.437Z,73.10
2019-04-06T01:23:40.812Z,68.70
2019-04-06T01:26:08.936Z,71.87
2019-04-06T01:28:37.062Z,71.00
2019-04-06T01:31:05.154Z,70.00
2019-04-06T01:33:33.223Z,72.27
2019-04-06T01:36:01.302Z,73.83
2019-04-06T01:38:29.490Z,75.37
2019-04-06T01:41:00.036Z,68.37
2019-04-06T01:43:28.746Z,69.67
2019-04-06T01:45:56.875Z,71.80
2019-04-06T01:48:24.957Z,76.23
2019-04-06T01:50:53.082Z,73.23
2019-04-06T01:53:21.176Z,68.47
2019-04-06T01:55:49.245Z,72.30
2019-04-06T01:58:17.357Z,73.13
2019-04-06T02:00:59.047Z,70.40
2019-04-06T02:03:27.181Z,68.20
2019-04-06T02:05:55.263Z,71.43
2019-04-06T02:08:23.371Z,70.23
2019-04-06T02:10:51.478Z,71.47
2019-04-06T02:13:19.571Z,69.37
2019-04-06T02:15:48.495Z,71.17
2019-04-06T02:18:16.638Z,67.37
2019-04-06T02:20:44.845Z,72.33
2019-04-06T02:23:12.896Z,67.60
2019-04-06T02:25:40.985Z,70.27
2019-04-06T02:28:09.135Z,67.43
2019-04-06T02:30:42.102Z,70.37
2019-04-06T02:33:26.468Z,65.07
2019-04-06T02:36:31.606Z,67.93
2019-04-06T02:39:08.510Z,67.30
2019-04-06T02:42:13.955Z,65.27
2019-04-06T02:44:42.000Z,63.63
2019-04-06T02:47:10.156Z,66.07
2019-04-06T02:49:38.263Z,61.63
2019-04-06T02:52:06.625Z,66.77
2019-04-06T02:54:34.768Z,65.00
2019-04-06T02:57:03.085Z,65.70
2019-04-06T02:59:31.269Z,62.97
2019-04-06T03:01:59.423Z,70.63
2019-04-06T03:07:36.689Z,70.97
2019-04-06T03:10:05.984Z,61.60
2019-04-06T03:12:34.207Z,65.97
2019-04-06T03:15:02.576Z,67.83
2019-04-06T03:17:30.606Z,65.27
2019-04-06T03:19:58.683Z,62.13
2019-04-06T03:22:26.801Z,62.63
2019-04-06T03:24:54.932Z,70.50
2019-04-06T03:27:23.249Z,65.57
2019-04-06T03:29:58.355Z,63.77
2019-04-06T03:32:21.581Z,64.77
2019-04-06T03:34:50.083Z,61.40
2019-04-06T03:37:18.272Z,62.67
2019-04-06T03:39:46.439Z,67.77
2019-04-06T03:42:14.888Z,63.70
2019-04-06T03:44:42.987Z,65.43
2019-04-06T03:47:11.085Z,66.07
2019-04-06T03:49:39.159Z,64.00
2019-04-06T03:52:07.221Z,66.10
2019-04-06T03:54:35.282Z,68.87
2019-04-06T03:57:15.225Z,65.30
2019-04-06T03:59:33.065Z,64.10
2019-04-06T04:02:01.084Z,60.00
2019-04-06T04:04:29.142Z,67.40
2019-04-06T04:06:57.182Z,68.93
2019-04-06T04:09:25.226Z,65.40
2019-04-06T04:11:53.803Z,61.20
2019-04-06T04:14:21.885Z,66.73
2019-04-06T04:16:49.989Z,64.67
2019-04-06T04:19:18.082Z,65.60
2019-04-06T04:21:46.116Z,64.10
2019-04-06T04:24:14.533Z,65.47
2019-04-06T04:26:42.581Z,65.13
2019-04-06T04:29:10.707Z,63.70
2019-04-06T04:31:38.755Z,63.57
2019-04-06T04:34:07.023Z,68.03
2019-04-06T04:36:35.103Z,64.17
2019-04-06T04:39:04.191Z,66.73
2019-04-06T04:41:34.653Z,67.97
2019-04-06T04:44:02.717Z,65.77
2019-04-06T04:46:30.768Z,74.13
2019-04-06T04:48:58.837Z,71.20
2019-04-06T04:51:26.906Z,65.93
2019-04-06T04:53:54.949Z,80.00
2019-04-06T04:56:23.030Z,64.20
2019-04-06T04:58:51.073Z,66.97
2019-04-06T05:01:19.136Z,69.07
2019-04-06T05:03:47.173Z,70.37
2019-04-06T05:06:15.290Z,67.77
2019-04-06T05:09:34.670Z,70.00
2019-04-06T05:12:02.871Z,69.10
2019-04-06T05:14:49.744Z,77.23
2019-04-06T05:17:17.802Z,78.17
2019-04-06T05:19:45.892Z,71.83
2019-04-06T05:22:15.180Z,77.13
2019-04-06T05:24:43.949Z,72.97
2019-04-06T05:27:12.059Z,76.57
2019-04-06T05:29:40.107Z,77.97
2019-04-06T05:32:08.295Z,75.87
2019-04-06T05:34:36.352Z,80.67
2019-04-06T05:37:04.442Z,81.10
2019-04-06T05:39:32.471Z,80.03
2019-04-06T05:42:00.504Z,83.43
2019-04-06T05:44:28.635Z,88.00
2019-04-06T05:46:56.668Z,85.07
2019-04-06T05:49:25.254Z,81.50
2019-04-06T05:51:53.335Z,86.63
2019-04-06T05:54:21.305Z,95.17
2019-04-06T05:56:49.429Z,90.50
2019-04-06T05:59:17.412Z,93.90
2019-04-06T06:01:48.123Z,98.70
2019-04-06T06:04:15.199Z,90.90
2019-04-06T06:06:43.270Z,97.80
2019-04-06T06:09:11.346Z,94.17
2019-04-06T06:11:39.587Z,91.67
2019-04-06T06:14:07.682Z,93.07
2019-04-06T06:16:35.854Z,92.70
2019-04-06T06:19:04.184Z,97.27
2019-04-06T06:21:32.273Z,92.37
2019-04-06T06:24:00.348Z,97.87
2019-04-06T06:26:29.437Z,103.47
2019-04-06T06:28:57.494Z,101.00
2019-04-06T06:31:25.559Z,99.17
2019-04-06T06:33:53.654Z,94.10
2019-04-06T06:36:21.699Z,100.83
2019-04-06T06:38:50.470Z,97.47
2019-04-06T06:41:18.554Z,100.50
2019-04-06T06:43:46.914Z,99.27
2019-04-06T06:46:15.019Z,95.33
2019-04-06T06:48:43.406Z,104.63
2019-04-06T06:51:11.561Z,95.47
2019-04-06T06:53:39.736Z,94.53
2019-04-06T06:56:08.129Z,97.70
2019-04-06T06:58:37.024Z,97.83
2019-04-06T07:01:05.296Z,97.30
2019-04-06T07:03:33.344Z,99.27
2019-04-06T07:06:02.225Z,97.53
2019-04-06T07:08:30.430Z,101.67
2019-04-06T07:10:58.498Z,97.23
2019-04-06T07:13:26.601Z,93.60
2019-04-06T07:15:54.975Z,96.03
2019-04-06T07:18:23.070Z,95.33
2019-04-06T07:20:51.350Z,93.13
2019-04-06T07:23:20.223Z,91.40
2019-04-06T07:25:57.350Z,93.30
2019-04-06T07:28:18.124Z,92.87
2019-04-06T07:30:46.163Z,96.77
2019-04-06T07:33:14.286Z,91.33
2019-04-06T07:35:42.433Z,93.57
2019-04-06T07:38:10.795Z,88.53
2019-04-06T07:40:39.880Z,87.90
2019-04-06T07:43:08.431Z,87.87
2019-04-06T07:45:43.278Z,87.30
2019-04-06T07:48:11.366Z,88.93
2019-04-06T07:50:39.729Z,87.37
2019-04-06T07:53:08.615Z,84.30
2019-04-06T07:55:37.041Z,78.33
2019-04-06T07:58:05.277Z,85.13
2019-04-06T08:00:33.454Z,77.10
2019-04-06T08:03:01.562Z,77.80
2019-04-06T08:05:29.951Z,76.23
2019-04-06T08:07:58.184Z,76.83
2019-04-06T08:10:26.349Z,75.20
2019-04-06T08:12:54.532Z,71.03
2019-04-06T08:15:22.613Z,76.03
2019-04-06T08:17:50.712Z,73.73
2019-04-06T08:20:20.338Z,72.00
2019-04-06T08:22:48.457Z,71.27
2019-04-06T08:25:17.593Z,70.73
2019-04-06T08:27:45.671Z,71.67
2019-04-06T08:30:14.384Z,70.37
2019-04-06T08:32:42.481Z,71.17
2019-04-06T08:35:10.681Z,66.67
2019-04-06T08:37:38.909Z,72.70
2019-04-06T08:40:07.805Z,74.53
2019-04-06T08:42:35.874Z,69.70
2019-04-06T08:45:04.196Z,68.73
2019-04-06T08:47:32.296Z,68.83
2019-04-06T08:50:00.669Z,67.63
2019-04-06T08:52:28.755Z,71.93
2019-04-06T08:54:57.027Z,65.03
2019-04-06T08:57:25.087Z,66.33
2019-04-06T08:59:53.593Z,72.13
2019-04-06T09:02:21.932Z,69.03
2019-04-06T09:04:50.024Z,66.77
2019-04-06T09:07:18.079Z,66.43
2019-04-06T09:09:46.468Z,66.47
2019-04-06T09:12:14.871Z,65.87
2019-04-06T09:14:43.303Z,63.63
2019-04-06T09:17:11.376Z,63.10
2019-04-06T09:19:39.453Z,67.10
2019-04-06T09:22:07.552Z,65.87
2019-04-06T09:24:36.285Z,62.23
2019-04-06T09:27:04.925Z,69.43
2019-04-06T09:29:34.410Z,65.63
2019-04-06T09:32:03.829Z,63.97
2019-04-06T09:34:34.946Z,62.43
2019-04-06T09:37:03.923Z,66.37
2019-04-06T09:39:32.799Z,61.83
2019-04-06T09:42:00.974Z,66.33
2019-04-06T09:44:47.924Z,68.23
2019-04-06T09:47:28.256Z,61.20
2019-04-06T09:50:17.758Z,63.33
2019-04-06T09:53:24.153Z,62.13
2019-04-06T09:56:17.189Z,64.63
2019-04-06T09:59:04.269Z,63.93
2019-04-06T10:01:59.380Z,64.80
2019-04-06T10:04:36.573Z,57.77
2019-04-06T10:07:23.663Z,62.23
2019-04-06T10:10:10.727Z,63.63
2019-04-06T10:12:49.048Z,59.13
2019-04-06T10:15:33.955Z,60.13
2019-04-06T10:18:11.512Z,56.70
2019-04-06T10:20:59.229Z,55.97
2019-04-06T10:23:55.947Z,55.97
2019-04-06T10:26:39.215Z,53.00
2019-04-06T10:29:16.607Z,55.23
2019-04-06T10:31:56.382Z,55.33
2019-04-06T10:34:58.613Z,53.17
2019-04-06T10:37:48.857Z,54.13
2019-04-06T10:40:38.950Z,49.50
2019-04-06T10:43:41.138Z,49.87
2019-04-06T10:46:40.297Z,51.30
2019-04-06T10:49:22.873Z,48.90
2019-04-06T10:52:02.456Z,45.13
2019-04-06T10:54:52.397Z,48.80
2019-04-06T10:57:32.564Z,40.90
2019-04-06T11:00:25.477Z,40.47
2019-04-06T11:03:11.465Z,36.87
2019-04-06T11:05:52.304Z,39.37
2019-04-06T11:08:54.714Z,43.90
2019-04-06T11:11:48.471Z,43.47
2019-04-06T11:14:53.898Z,42.77
2019-04-06T11:17:39.762Z,42.07
2019-04-06T11:20:27.679Z,41.70
2019-04-06T11:23:27.135Z,44.50
2019-04-06T11:26:20.477Z,40.53
2019-04-06T11:28:58.587Z,44.53
2019-04-06T11:31:42.538Z,40.63
2019-04-06T11:34:35.396Z,41.57
2019-04-06T11:37:14.029Z,40.30
2019-04-06T11:39:53.140Z,40.53
2019-04-06T11:42:31.632Z,40.80
2019-04-06T11:45:17.745Z,40.60
2019-04-06T11:48:03.844Z,38.67
2019-04-06T11:50:44.819Z,39.93
2019-04-06T11:53:37.726Z,37.93
2019-04-06T11:56:11.968Z,37.60
2019-04-06T11:58:48.325Z,37.40
2019-04-06T12:01:44.818Z,37.07
2019-04-06T12:04:35.121Z,32.27
2019-04-06T12:07:18.218Z,32.87
2019-04-06T12:10:23.915Z,34.60
2019-04-06T12:13:22.897Z,32.40
2019-04-06T12:15:57.935Z,30.27
2019-04-06T12:18:48.145Z,31.67
2019-04-06T12:21:32.900Z,29.60
2019-04-06T12:24:18.199Z,29.87
2019-04-06T12:27:04.056Z,29.87
2019-04-06T12:29:47.463Z,29.07
2019-04-06T12:32:37.875Z,31.67
2019-04-06T12:35:26.031Z,34.33
2019-04-06T12:38:11.321Z,29.57
2019-04-06T12:41:01.113Z,29.00
2019-04-06T12:43:48.191Z,28.07
2019-04-06T12:46:53.977Z,27.70
2019-04-06T12:49:56.139Z,27.23
2019-04-06T12:52:43.518Z,27.83
2019-04-06T12:55:30.641Z,31.90
2019-04-06T12:58:29.624Z,30.23
2019-04-06T13:01:16.868Z,31.43
2019-04-06T13:04:02.756Z,31.50
2019-04-06T13:06:48.804Z,30.30
2019-04-06T13:09:35.979Z,28.13
2019-04-06T13:12:26.331Z,27.97
2019-04-06T13:15:08.919Z,26.83
2019-04-06T13:17:59.703Z,28.00
2019-04-06T13:20:57.967Z,26.23
2019-04-06T13:23:45.163Z,27.90
2019-04-06T13:26:34.984Z,28.33
2019-04-06T13:29:31.087Z,28.77
2019-04-06T13:32:27.557Z,23.53
2019-04-06T13:35:02.642Z,20.63
2019-04-06T13:41:02.919Z,24.47
2019-04-06T13:43:50.240Z,22.47
2019-04-06T13:46:40.873Z,25.07
2019-04-06T13:49:27.218Z,25.40
2019-04-06T13:52:29.726Z,25.03
2019-04-06T13:55:21.102Z,23.90
2019-04-06T13:57:56.796Z,20.40
2019-04-06T14:00:42.764Z,20.67
2019-04-06T14:03:36.008Z,21.57
2019-04-06T14:06:30.221Z,21.17
2019-04-06T14:09:26.747Z,22.43
2019-04-06T14:12:00.630Z,22.27
2019-04-06T14:14:53.802Z,21.67
2019-04-06T14:17:39.451Z,21.07
2019-04-06T14:20:23.994Z,22.27
2019-04-06T14:23:01.995Z,23.27
2019-04-06T14:26:13.038Z,19.77
2019-04-06T14:28:53.429Z,18.93
2019-04-06T14:31:30.822Z,20.27
2019-04-06T14:34:21.664Z,20.23
2019-04-06T14:37:08.702Z,19.67
2019-04-06T14:39:56.077Z,21.17
2019-04-06T14:45:31.286Z,18.93
2019-04-06T14:48:15.400Z,18.60
2019-04-06T14:51:06.575Z,16.67
2019-04-06T14:53:50.761Z,15.90
2019-04-06T14:56:37.826Z,16.67
2019-04-06T14:59:29.408Z,17.20
2019-04-06T15:02:19.389Z,16.67
2019-04-06T15:05:09.687Z,14.70
2019-04-06T15:08:05.678Z,14.97
2019-04-06T15:14:14.277Z,14.87
2019-04-06T15:16:52.728Z,14.97
2019-04-06T15:19:45.805Z,13.27
2019-04-06T15:22:39.002Z,14.43
2019-04-06T15:25:19.228Z,14.73
2019-04-06T15:28:06.413Z,14.13
2019-04-06T15:30:59.302Z,15.20
2019-04-06T15:36:41.250Z,17.37
2019-04-06T15:39:40.560Z,20.97
2019-04-06T15:42:36.583Z,24.17
2019-04-06T15:45:22.715Z,26.53
2019-04-06T15:48:19.712Z,27.83
2019-04-06T15:50:55.851Z,31.77
2019-04-06T15:53:39.855Z,31.47
2019-04-06T15:56:27.393Z,31.43
2019-04-06T15:59:11.310Z,30.80
2019-04-06T16:04:56.951Z,30.37
2019-04-06T16:07:43.301Z,27.80
2019-04-06T16:10:28.324Z,29.83
2019-04-06T16:13:06.976Z,27.97
2019-04-06T16:16:26.313Z,32.10
2019-04-06T16:19:13.394Z,28.20
2019-04-06T16:25:01.168Z,29.87
2019-04-06T16:31:04.181Z,28.53
2019-04-06T16:33:50.526Z,33.23
2019-04-06T16:36:25.395Z,27.50
2019-04-06T16:39:44.750Z,28.87
2019-04-06T16:42:30.744Z,26.53
2019-04-06T16:45:11.696Z,30.93
2019-04-06T16:47:58.141Z,29.00
2019-04-06T16:50:54.255Z,28.93
2019-04-06T16:53:40.563Z,31.27
2019-04-06T16:56:18.445Z,28.23
2019-04-06T16:59:05.931Z,30.93
2019-04-06T17:04:23.421Z,31.13
2019-04-06T17:07:22.608Z,28.73
2019-04-06T17:10:12.750Z,29.33
2019-04-06T17:12:58.637Z,31.30
2019-04-06T17:15:54.981Z,29.73
2019-04-06T17:18:44.906Z,31.77
2019-04-06T17:21:37.826Z,30.57
2019-04-06T17:24:17.636Z,27.77
2019-04-06T17:27:06.916Z,31.87
2019-04-06T17:30:00.094Z,32.97
2019-04-06T17:32:57.653Z,29.60
2019-04-06T17:35:34.660Z,27.83
2019-04-06T17:38:30.585Z,31.33
2019-04-06T17:41:21.843Z,32.37
2019-04-06T17:44:15.413Z,29.63
2019-04-06T17:47:14.387Z,31.50
2019-04-06T17:50:07.524Z,29.83
2019-04-06T17:53:13.553Z,30.37
2019-04-06T17:56:05.684Z,33.30
2019-04-06T17:58:41.886Z,36.90
2019-04-06T18:01:29.014Z,36.43
2019-04-06T18:04:16.114Z,38.67
2019-04-06T18:07:05.357Z,30.97
2019-04-06T18:09:41.156Z,32.30
2019-04-06T18:12:19.602Z,31.63
2019-04-06T18:14:47.763Z,33.93
2019-04-06T18:17:15.865Z,31.77
2019-04-06T18:19:44.822Z,29.47
2019-04-06T18:22:13.476Z,36.43
2019-04-06T18:24:44.145Z,34.90
2019-04-06T18:27:12.855Z,33.63
2019-04-06T18:29:41.748Z,34.17
2019-04-06T18:32:38.375Z,35.00
2019-04-06T18:35:07.509Z,39.30
2019-04-06T18:37:38.980Z,33.47
2019-04-06T18:40:27.298Z,32.40
2019-04-06T18:42:55.416Z,32.70
2019-04-06T18:45:23.543Z,35.13
2019-04-06T18:47:51.961Z,32.90
2019-04-06T18:50:35.929Z,35.00
2019-04-06T18:56:11.853Z,35.50
2019-04-06T19:01:48.927Z,37.90
2019-04-06T19:04:18.199Z,36.27
2019-04-06T19:06:50.686Z,36.17
2019-04-06T19:09:23.027Z,35.63
2019-04-06T19:11:55.555Z,38.43
2019-04-06T19:14:40.684Z,36.10
2019-04-06T19:17:08.885Z,36.80
2019-04-06T19:19:53.858Z,39.90
2019-04-06T19:22:46.117Z,39.40
2019-04-06T19:25:28.335Z,39.73
2019-04-06T19:27:48.932Z,39.67
2019-04-06T19:30:50.947Z,36.30
2019-04-06T19:33:25.163Z,36.63
2019-04-06T19:35:49.435Z,39.33
2019-04-06T19:38:17.887Z,40.80
2019-04-06T19:40:47.223Z,38.67
2019-04-06T19:43:18.919Z,42.13
2019-04-06T19:45:47.456Z,40.57
2019-04-06T19:48:15.966Z,43.00
2019-04-06T19:50:44.142Z,39.80
2019-04-06T19:53:12.421Z,38.97
2019-04-06T19:55:41.035Z,39.13
2019-04-06T19:58:09.345Z,38.53
2019-04-06T20:00:37.448Z,41.27
2019-04-06T20:03:05.702Z,43.63
2019-04-06T20:05:35.000Z,42.67
2019-04-06T20:11:25.569Z,41.47
2019-04-06T20:13:56.222Z,36.90
2019-04-06T20:16:24.534Z,39.13
2019-04-06T20:18:52.643Z,40.23
2019-04-06T20:21:20.980Z,42.63
2019-04-06T20:23:49.565Z,38.37
2019-04-06T20:26:18.419Z,37.53
2019-04-06T20:28:46.916Z,39.37
2019-04-06T20:31:14.962Z,38.50
2019-04-06T20:33:50.287Z,39.67
2019-04-06T20:36:13.095Z,39.13
2019-04-06T20:38:42.401Z,43.23
2019-04-06T20:41:10.937Z,38.93
2019-04-06T20:43:39.488Z,38.43
2019-04-06T20:46:07.929Z,43.57
2019-04-06T20:48:36.834Z,38.77
2019-04-06T20:54:14.571Z,40.97
2019-04-06T20:56:53.078Z,47.87
2019-04-06T20:59:12.912Z,41.47
2019-04-06T21:01:41.674Z,41.57
2019-04-06T21:04:10.381Z,41.07
2019-04-06T21:06:39.132Z,46.20
2019-04-06T21:09:10.135Z,42.27
2019-04-06T21:11:39.280Z,41.87
2019-04-06T21:14:07.921Z,42.53
2019-04-06T21:16:36.519Z,44.30
2019-04-06T21:19:04.805Z,42.10
2019-04-06T21:21:33.698Z,40.10
2019-04-06T21:24:02.083Z,44.60
2019-04-06T21:26:30.451Z,48.83
2019-04-06T21:28:58.529Z,39.13
2019-04-06T21:31:27.429Z,42.80
2019-04-06T21:33:56.017Z,40.80
2019-04-06T21:36:24.378Z,43.30
2019-04-06T21:38:52.447Z,42.43
2019-04-06T21:41:20.993Z,41.23
2019-04-06T21:43:49.512Z,41.63
2019-04-06T21:46:17.872Z,42.53
2019-04-06T21:48:45.939Z,42.87
2019-04-06T21:51:35.613Z,41.97
2019-04-06T21:54:04.071Z,43.97
2019-04-06T21:56:33.234Z,41.57
2019-04-06T21:59:01.623Z,43.63
2019-04-06T22:01:29.896Z,43.83
2019-04-06T22:03:57.927Z,44.33
2019-04-06T22:06:26.407Z,41.83
2019-04-06T22:08:55.102Z,45.40
2019-04-06T22:11:23.182Z,42.07
2019-04-06T22:13:52.588Z,42.33
2019-04-06T22:16:20.644Z,40.57
2019-04-06T22:18:48.831Z,44.23
2019-04-06T22:21:16.806Z,43.10
2019-04-06T22:23:46.096Z,41.23
2019-04-06T22:26:15.011Z,46.03
2019-04-06T22:28:43.098Z,39.90
2019-04-06T22:31:11.289Z,41.37
2019-04-06T22:33:39.892Z,40.20
2019-04-06T22:36:08.002Z,40.70
2019-04-06T22:38:36.568Z,37.90
2019-04-06T22:41:04.759Z,42.93
2019-04-06T22:43:33.436Z,41.40
2019-04-06T22:46:01.630Z,38.87
2019-04-06T22:48:29.820Z,40.67
2019-04-06T22:50:57.884Z,40.07
2019-04-06T22:53:25.990Z,41.00
2019-04-06T22:55:54.046Z,41.70
2019-04-06T22:58:22.610Z,41.30
2019-04-06T23:00:56.781Z,41.03
2019-04-06T23:03:55.041Z,42.60
2019-04-06T23:06:31.179Z,40.77
2019-04-06T23:08:59.545Z,41.30
2019-04-06T23:11:27.901Z,42.63
2019-04-06T23:13:56.327Z,41.10
2019-04-06T23:16:24.332Z,45.07
2019-04-06T23:18:52.398Z,41.03
2019-04-06T23:21:21.383Z,41.03
2019-04-06T23:23:50.208Z,41.17
2019-04-06T23:26:18.788Z,40.83
2019-04-06T23:28:47.330Z,40.43
2019-04-06T23:31:15.475Z,42.43
2019-04-06T23:33:43.601Z,39.33
2019-04-06T23:36:12.120Z,43.67
2019-04-06T23:38:40.462Z,42.83
2019-04-06T23:41:08.669Z,42.63
2019-04-06T23:43:37.313Z,41.77
2019-04-06T23:46:05.335Z,42.53
2019-04-06T23:48:33.638Z,42.73
2019-04-06T23:51:01.958Z,43.37
2019-04-06T23:53:30.457Z,46.47
2019-04-06T23:55:58.853Z,47.37
2019-04-06T23:58:26.899Z,43.63
